Time;durP1;ratioP1;P1;durP2;ratioP2;P2;SDS_P1;SDS_P2;PMS_P1;PMS_P2;Temp;Humidity;BMP_temperature;BMP_pressure;BME280_temperature;BME280_humidity;BME280_pressure;Samples;Min_cycle;Max_cycle;Signal;HPM_P1;HPM_P2
2022/11/08 00:03:36;;;;;;;9.05;1.48;;;12.30;99.90;;;;;;6130213;19;19993;-67
2022/11/08 00:14:46;;;;;;;9.30;1.67;;;;;;;;;;6129069;19;19926;-67
2022/11/08 00:16:50;;;;;;;5.70;1.50;;;;;;;;;;6129547;19;20287;-67
2022/11/08 00:18:56;;;;;;;6.70;1.83;;;12.20;99.90;;;;;;6133671;19;19915;-67
2022/11/08 00:21:03;;;;;;;4.50;1.40;;;12.30;99.90;;;;;;6131786;19;19950;-67
2022/11/08 00:23:08;;;;;;;5.18;1.50;;;11.90;99.90;;;;;;6129980;19;20265;-67
2022/11/08 00:25:12;;;;;;;8.55;1.67;;;11.80;99.90;;;;;;6129073;19;20276;-67
2022/11/08 00:27:19;;;;;;;9.60;1.48;;;12.00;99.90;;;;;;6130065;19;19915;-67
2022/11/08 00:29:23;;;;;;;8.35;1.80;;;;;;;;;;6129871;19;19922;-67
2022/11/08 00:31:27;;;;;;;6.50;2.15;;;11.70;99.90;;;;;;6128903;19;20376;-68
2022/11/08 00:33:32;;;;;;;8.18;1.88;;;12.10;99.90;;;;;;6131676;19;19949;-67
2022/11/08 00:35:38;;;;;;;8.35;1.75;;;12.00;99.90;;;;;;6129864;19;19941;-67
2022/11/08 00:37:42;;;;;;;8.00;1.75;;;12.10;99.90;;;;;;6129668;19;20257;-67
2022/11/08 00:39:46;;;;;;;6.55;1.63;;;12.00;99.90;;;;;;6129761;19;20271;-67
2022/11/08 00:41:50;;;;;;;5.22;1.50;;;12.10;99.90;;;;;;6128673;19;19928;-67
2022/11/08 00:43:54;;;;;;;12.55;3.67;;;12.00;99.90;;;;;;6129605;19;20271;-67
2022/11/08 00:45:58;;;;;;;9.80;1.77;;;11.80;99.90;;;;;;6127146;19;19918;-67
2022/11/08 00:48:02;;;;;;;6.82;1.30;;;12.00;99.90;;;;;;6131983;19;19926;-67
2022/11/08 00:50:06;;;;;;;9.15;1.48;;;12.10;99.90;;;;;;6129074;19;19923;-68
2022/11/08 00:52:13;;;;;;;6.20;2.42;;;11.90;99.90;;;;;;6132940;19;19923;-68
2022/11/08 00:54:19;;;;;;;7.63;1.30;;;12.50;99.90;;;;;;6128844;19;20323;-67
2022/11/08 00:56:23;;;;;;;6.57;1.80;;;;;;;;;;6129008;19;20273;-68
2022/11/08 00:58:27;;;;;;;6.85;1.65;;;12.00;99.90;;;;;;6131419;19;19915;-68
2022/11/08 01:00:31;;;;;;;9.38;1.77;;;12.30;99.90;;;;;;6129558;19;19914;-68
2022/11/08 01:02:35;;;;;;;11.05;1.92;;;11.90;99.90;;;;;;6131028;19;20439;-68
2022/11/08 01:04:39;;;;;;;5.05;1.63;;;12.30;99.90;;;;;;6128461;19;19918;-68
2022/11/08 01:06:43;;;;;;;3.92;1.48;;;12.20;99.90;;;;;;6129301;19;19919;-68
2022/11/08 01:08:51;;;;;;;6.18;1.52;;;12.00;99.90;;;;;;6131116;19;19922;-68
2022/11/08 01:10:55;;;;;;;12.18;2.45;;;11.70;99.90;;;;;;6128820;19;19918;-68
2022/11/08 01:12:59;;;;;;;7.43;1.50;;;11.90;99.90;;;;;;6128741;19;19918;-68
2022/11/08 01:15:02;;;;;;;6.95;1.40;;;11.80;99.90;;;;;;6130911;19;19922;-68
2022/11/08 01:17:06;;;;;;;4.50;1.38;;;11.80;99.90;;;;;;6130140;19;19926;-68
2022/11/08 01:19:11;;;;;;;7.50;2.38;;;12.70;99.90;;;;;;6128927;19;20359;-68
2022/11/08 01:21:16;;;;;;;4.43;1.48;;;12.00;99.90;;;;;;6129016;19;19915;-68
2022/11/08 01:23:20;;;;;;;3.60;1.20;;;11.70;99.90;;;;;;6127453;19;19942;-68
2022/11/08 01:25:27;;;;;;;6.38;1.25;;;11.90;99.90;;;;;;6127639;19;19925;-68
2022/11/08 01:27:31;;;;;;;7.45;1.50;;;11.80;99.90;;;;;;6130308;19;19919;-68
2022/11/08 01:29:36;;;;;;;2.65;1.55;;;11.90;99.90;;;;;;6128510;19;19915;-68
2022/11/08 01:31:40;;;;;;;6.63;1.50;;;11.90;99.90;;;;;;6127039;19;20276;-67
2022/11/08 01:33:43;;;;;;;9.93;1.63;;;12.30;99.90;;;;;;6128146;19;19919;-68
2022/11/08 01:35:47;;;;;;;5.93;1.40;;;12.00;99.90;;;;;;6128102;19;19914;-68
2022/11/08 01:37:53;;;;;;;6.15;1.23;;;11.80;99.90;;;;;;6128855;19;19914;-68
2022/11/08 01:39:56;;;;;;;9.20;2.08;;;11.70;99.90;;;;;;6128526;19;19918;-68
2022/11/08 01:42:03;;;;;;;7.85;2.63;;;12.10;99.90;;;;;;6128397;19;19926;-68
2022/11/08 01:44:07;;;;;;;5.13;1.40;;;11.70;99.90;;;;;;6128016;19;19914;-68
2022/11/08 01:46:33;;;;;;;4.88;1.15;;;11.70;99.90;;;;;;6127321;19;19945;-68
2022/11/08 01:48:39;;;;;;;6.40;1.55;;;11.90;99.90;;;;;;6128330;19;19915;-68
2022/11/08 01:50:42;;;;;;;3.25;0.98;;;11.80;99.90;;;;;;6127099;19;20407;-67
2022/11/08 01:52:49;;;;;;;7.90;1.77;;;11.80;99.90;;;;;;6130730;19;19919;-67
2022/11/08 01:54:58;;;;;;;8.35;1.65;;;11.70;99.90;;;;;;6128037;19;19941;-67
2022/11/08 01:57:08;;;;;;;8.75;1.55;;;11.50;99.90;;;;;;6128311;19;19918;-68
2022/11/08 01:59:14;;;;;;;9.63;1.65;;;11.90;99.90;;;;;;6127809;19;19915;-67
2022/11/08 02:01:18;;;;;;;7.00;1.55;;;11.60;99.90;;;;;;6129278;19;20411;-67
2022/11/08 02:03:23;;;;;;;7.38;1.60;;;11.40;99.90;;;;;;6127628;19;19918;-67
2022/11/08 02:05:28;;;;;;;9.38;1.80;;;11.60;99.90;;;;;;6126929;19;19919;-67
2022/11/08 02:07:33;;;;;;;8.95;2.03;;;11.90;99.90;;;;;;6127741;19;19918;-67
2022/11/08 02:09:40;;;;;;;4.30;1.40;;;11.60;99.90;;;;;;6127842;19;19952;-67
2022/11/08 02:11:44;;;;;;;6.50;1.63;;;11.70;99.90;;;;;;6129619;19;19918;-67
2022/11/08 02:13:51;;;;;;;5.43;1.35;;;11.30;99.90;;;;;;6127370;19;19930;-67
2022/11/08 02:15:55;;;;;;;13.18;2.60;;;11.60;99.90;;;;;;6128320;19;20340;-67
2022/11/08 02:17:59;;;;;;;10.57;2.00;;;11.60;99.90;;;;;;6127157;19;19938;-67
2022/11/08 02:20:03;;;;;;;6.28;1.55;;;;;;;;;;6126222;19;19911;-67
2022/11/08 02:22:12;;;;;;;5.53;1.25;;;11.50;99.90;;;;;;6127083;19;19918;-67
2022/11/08 02:24:19;;;;;;;;;;;11.60;99.90;;;;;;6129103;19;19931;-67
2022/11/08 02:26:24;;;;;;;7.55;1.58;;;11.90;99.90;;;;;;6125825;19;20317;-67
2022/11/08 02:28:28;;;;;;;5.30;1.38;;;11.40;99.90;;;;;;6126764;19;19922;-67
2022/11/08 02:30:36;;;;;;;6.90;2.17;;;11.70;99.90;;;;;;6128086;19;20415;-67
2022/11/08 02:32:41;;;;;;;6.68;2.00;;;11.50;99.90;;;;;;6126675;19;19914;-67
2022/11/08 02:34:49;;;;;;;8.90;2.05;;;11.60;99.90;;;;;;6127010;19;20253;-68
2022/11/08 02:36:52;;;;;;;5.32;1.70;;;11.40;99.90;;;;;;6128950;19;19915;-67
2022/11/08 02:38:59;;;;;;;5.85;2.03;;;11.20;99.90;;;;;;6126766;19;19938;-67
2022/11/08 02:41:06;;;;;;;8.98;1.63;;;11.20;99.90;;;;;;6126936;19;19918;-67
2022/11/08 02:43:10;;;;;;;12.27;1.83;;;11.30;99.90;;;;;;6127446;19;19946;-68
2022/11/08 02:45:14;;;;;;;7.00;1.70;;;11.30;99.90;;;;;;6126001;19;19923;-67
2022/11/08 02:47:18;;;;;;;5.85;1.65;;;11.50;99.90;;;;;;6130070;19;20276;-67
2022/11/08 02:49:21;;;;;;;7.40;1.50;;;11.90;99.90;;;;;;6126396;19;19911;-67
2022/11/08 02:51:25;;;;;;;7.57;1.45;;;11.20;99.90;;;;;;6126742;19;19919;-67
2022/11/08 02:53:29;;;;;;;6.28;1.38;;;;;;;;;;6126450;19;19931;-67
2022/11/08 02:55:34;;;;;;;8.60;1.60;;;10.90;99.90;;;;;;6126076;19;19934;-67
2022/11/08 02:57:41;;;;;;;8.48;1.80;;;11.20;99.90;;;;;;6126280;19;20237;-67
2022/11/08 02:59:44;;;;;;;7.03;1.70;;;10.80;99.90;;;;;;6126783;19;20284;-67
2022/11/08 03:01:48;;;;;;;2.58;1.15;;;11.30;99.90;;;;;;6128159;19;20352;-67
2022/11/08 03:03:52;;;;;;;5.78;1.60;;;11.30;99.90;;;;;;6125995;19;20329;-67
2022/11/08 03:05:58;;;;;;;6.32;1.50;;;11.00;99.90;;;;;;6125448;19;20372;-67
2022/11/08 03:08:02;;;;;;;3.60;1.58;;;;;;;;;;6125989;19;19918;-68
2022/11/08 03:10:07;;;;;;;5.82;1.40;;;11.10;99.90;;;;;;6126219;19;19922;-67
2022/11/08 03:12:10;;;;;;;10.20;1.42;;;11.00;99.90;;;;;;6128999;19;19918;-67
2022/11/08 03:14:17;;;;;;;8.02;1.80;;;11.20;99.90;;;;;;6124775;19;19946;-67
2022/11/08 03:16:21;;;;;;;9.95;2.63;;;11.40;99.90;;;;;;6126213;19;19915;-67
2022/11/08 03:18:25;;;;;;;6.60;1.90;;;10.90;99.90;;;;;;6126322;19;19926;-68
2022/11/08 03:20:29;;;;;;;7.10;1.45;;;11.10;99.90;;;;;;6124567;19;19918;-67
2022/11/08 03:22:33;;;;;;;6.90;1.70;;;10.90;99.90;;;;;;6126400;19;19919;-67
2022/11/08 03:24:36;;;;;;;8.63;1.73;;;11.00;99.90;;;;;;6123628;19;20041;-67
2022/11/08 03:26:40;;;;;;;7.07;2.22;;;11.10;99.90;;;;;;6124506;19;20275;-67
2022/11/08 03:28:44;;;;;;;7.68;2.15;;;11.10;99.90;;;;;;6125823;19;19918;-67
2022/11/08 03:30:53;;;;;;;4.05;2.00;;;11.10;99.90;;;;;;6125616;19;19986;-67
2022/11/08 03:32:56;;;;;;;4.75;1.85;;;11.00;99.90;;;;;;6126160;19;20332;-68
2022/11/08 03:35:00;;;;;;;2.95;1.50;;;11.00;99.90;;;;;;6124534;19;19914;-68
2022/11/08 03:37:04;;;;;;;6.15;1.73;;;;;;;;;;6125166;19;19914;-68
2022/11/08 03:39:08;;;;;;;3.30;1.10;;;11.10;99.90;;;;;;6126459;19;19918;-68
2022/11/08 03:41:12;;;;;;;5.45;1.52;;;;;;;;;;6131237;19;19941;-68
2022/11/08 03:43:16;;;;;;;6.65;1.15;;;10.70;99.90;;;;;;6131809;19;19941;-68
2022/11/08 03:45:20;;;;;;;5.35;1.58;;;10.80;99.90;;;;;;6132471;19;19922;-68
2022/11/08 03:47:27;;;;;;;6.13;1.42;;;10.90;99.90;;;;;;6130600;19;20474;-68
2022/11/08 03:49:31;;;;;;;8.07;1.48;;;10.90;99.90;;;;;;6130698;19;19991;-68
2022/11/08 03:51:35;;;;;;;5.30;1.67;;;10.40;99.90;;;;;;6129923;19;20256;-68
2022/11/08 03:53:38;;;;;;;6.88;1.77;;;10.80;99.90;;;;;;6130249;19;19922;-68
2022/11/08 03:55:42;;;;;;;6.40;1.77;;;10.60;99.90;;;;;;6132311;19;19919;-68
2022/11/08 03:57:48;;;;;;;8.25;1.90;;;10.60;99.90;;;;;;6130495;19;19922;-68
2022/11/08 03:59:52;;;;;;;6.20;1.50;;;10.70;99.90;;;;;;6132340;19;19918;-68
2022/11/08 04:01:55;;;;;;;2.33;1.45;;;10.70;99.90;;;;;;6130734;19;20319;-68
2022/11/08 04:04:02;;;;;;;6.88;1.38;;;10.50;99.90;;;;;;6131658;19;19919;-68
2022/11/08 04:06:06;;;;;;;6.65;2.17;;;10.40;99.90;;;;;;6131448;19;19926;-68
2022/11/08 04:08:10;;;;;;;6.05;1.63;;;10.40;99.90;;;;;;6130634;19;19922;-68
2022/11/08 04:10:16;;;;;;;7.70;2.38;;;10.60;99.90;;;;;;6132120;19;19933;-68
2022/11/08 04:16:53;;;;;;;5.30;1.52;;;10.60;99.90;;;;;;6129004;19;19915;-66
2022/11/08 04:21:20;;;;;;;6.50;1.50;;;10.40;99.90;;;;;;6130620;19;19982;-67
2022/11/08 04:23:24;;;;;;;3.85;1.63;;;10.40;99.90;;;;;;6131222;19;19998;-67
2022/11/08 04:25:28;;;;;;;8.02;1.88;;;10.30;99.90;;;;;;6131151;19;20253;-67
2022/11/08 04:27:32;;;;;;;4.82;1.35;;;10.40;99.90;;;;;;6129925;19;19911;-67
2022/11/08 04:29:36;;;;;;;7.53;1.67;;;;;;;;;;6129986;19;19915;-68
2022/11/08 04:31:41;;;;;;;5.40;2.47;;;10.30;99.90;;;;;;6129882;19;19925;-68
2022/11/08 04:33:45;;;;;;;6.60;1.40;;;10.30;99.90;;;;;;6130213;19;20253;-67
2022/11/08 04:35:49;;;;;;;8.38;1.88;;;10.20;99.90;;;;;;6131302;19;19915;-68
2022/11/08 04:37:59;;;;;;;5.05;1.40;;;10.20;99.90;;;;;;6129786;19;19937;-68
2022/11/08 04:40:03;;;;;;;7.88;1.48;;;;;;;;;;6130881;19;19945;-68
2022/11/08 04:42:07;;;;;;;8.75;1.63;;;10.20;99.90;;;;;;6129880;19;19915;-68
2022/11/08 04:44:12;;;;;;;8.82;1.60;;;;;;;;;;6130148;19;19930;-68
2022/11/08 04:46:19;;;;;;;5.72;1.83;;;10.10;99.90;;;;;;6128714;19;20336;-68
2022/11/08 04:48:23;;;;;;;6.40;1.67;;;10.10;99.90;;;;;;6129724;19;19906;-68
2022/11/08 04:50:27;;;;;;;5.85;1.35;;;10.10;99.90;;;;;;6127702;19;19953;-68
2022/11/08 04:52:31;;;;;;;5.30;1.42;;;10.00;99.90;;;;;;6129626;19;20292;-68
2022/11/08 04:54:37;;;;;;;4.20;1.15;;;10.10;99.90;;;;;;6130095;19;20279;-68
2022/11/08 04:56:41;;;;;;;7.13;1.52;;;10.10;99.90;;;;;;6129884;19;19911;-67
2022/11/08 04:58:46;;;;;;;7.88;1.70;;;10.10;99.90;;;;;;6129134;19;19926;-68
2022/11/08 05:00:50;;;;;;;6.38;2.28;;;10.10;99.90;;;;;;6129417;19;20025;-68
2022/11/08 05:02:54;;;;;;;7.15;1.27;;;10.00;99.90;;;;;;6129292;19;19911;-68
2022/11/08 05:04:58;;;;;;;3.42;1.52;;;9.90;99.90;;;;;;6128973;19;20268;-68
2022/11/08 05:07:02;;;;;;;3.85;1.10;;;9.80;99.90;;;;;;6127923;19;19911;-68
2022/11/08 05:09:06;;;;;;;6.15;1.40;;;9.80;99.90;;;;;;6130637;19;19918;-67
2022/11/08 05:11:17;;;;;;;7.30;1.75;;;9.80;99.90;;;;;;6127461;19;19923;-67
2022/11/08 05:13:21;;;;;;;7.45;1.25;;;;;;;;;;6132691;19;20287;-67
2022/11/08 05:15:25;;;;;;;6.22;1.60;;;9.90;99.90;;;;;;6130641;19;20026;-68
2022/11/08 05:17:29;;;;;;;7.60;1.92;;;10.00;99.90;;;;;;6128681;19;19921;-68
2022/11/08 05:24:07;;;;;;;4.75;1.50;;;9.90;99.90;;;;;;6128634;19;19914;-68
2022/11/08 05:26:15;;;;;;;5.55;1.67;;;10.00;99.90;;;;;;6127630;19;19949;-68
2022/11/08 05:28:19;;;;;;;7.35;1.52;;;10.10;99.90;;;;;;6129160;19;19978;-68
2022/11/08 05:30:23;;;;;;;5.38;1.77;;;9.80;99.90;;;;;;6128492;19;20298;-68
2022/11/08 05:32:27;;;;;;;7.07;1.77;;;9.70;99.90;;;;;;6128644;19;19929;-68
2022/11/08 05:34:31;;;;;;;4.38;1.73;;;9.80;99.90;;;;;;6127481;19;19922;-68
2022/11/08 05:36:36;;;;;;;5.35;1.70;;;10.00;99.90;;;;;;6128555;19;19923;-68
2022/11/08 05:38:40;;;;;;;6.05;1.58;;;;;;;;;;6128334;19;19918;-68
2022/11/08 05:40:44;;;;;;;3.78;1.45;;;9.90;99.90;;;;;;6128330;19;20378;-68
2022/11/08 05:42:51;;;;;;;8.00;1.90;;;9.80;99.90;;;;;;6128312;19;19919;-68
2022/11/08 05:44:55;;;;;;;6.05;1.60;;;9.70;99.90;;;;;;6128729;19;19990;-68
2022/11/08 05:46:59;;;;;;;5.57;2.10;;;;;;;;;;6126575;19;20287;-68
2022/11/08 05:49:03;;;;;;;6.13;1.70;;;;;;;;;;6127166;19;19907;-68
2022/11/08 05:51:07;;;;;;;6.75;1.98;;;10.00;99.90;;;;;;6127711;19;20351;-69
2022/11/08 05:53:11;;;;;;;6.80;1.80;;;9.60;99.90;;;;;;6127735;19;19934;-68
2022/11/08 05:55:15;;;;;;;3.92;1.30;;;9.70;99.90;;;;;;6127625;19;19930;-68
2022/11/08 05:57:18;;;;;;;4.97;1.90;;;10.00;99.90;;;;;;6127811;19;19927;-66
2022/11/08 05:59:25;;;;;;;5.25;1.70;;;10.00;99.90;;;;;;6129052;19;19924;-67
2022/11/08 06:01:29;;;;;;;6.70;2.35;;;9.60;99.90;;;;;;6127852;19;20542;-67
2022/11/08 06:03:33;;;;;;;9.52;2.03;;;9.80;99.90;;;;;;6125462;19;19910;-67
2022/11/08 06:05:37;;;;;;;5.80;2.42;;;9.80;99.90;;;;;;6130359;19;19931;-66
2022/11/08 06:07:41;;;;;;;3.67;1.52;;;9.60;99.90;;;;;;6126223;19;19918;-67
2022/11/08 06:09:45;;;;;;;7.13;2.03;;;;;;;;;;6127478;19;19907;-67
2022/11/08 06:11:49;;;;;;;6.32;2.00;;;10.00;99.90;;;;;;6127588;19;19919;-67
2022/11/08 06:13:55;;;;;;;4.40;1.70;;;9.90;99.90;;;;;;6127316;19;19937;-66
2022/11/08 06:16:05;;;;;;;7.03;2.28;;;9.70;99.90;;;;;;6127069;19;19927;-67
2022/11/08 06:18:08;;;;;;;9.02;2.03;;;9.80;99.90;;;;;;6129239;19;19922;-67
2022/11/08 06:20:14;;;;;;;6.93;1.55;;;10.00;99.90;;;;;;6129706;19;19918;-67
2022/11/08 06:22:18;;;;;;;6.00;2.20;;;10.00;99.90;;;;;;6126567;19;19934;-67
2022/11/08 06:24:22;;;;;;;5.63;2.10;;;9.80;99.90;;;;;;6130619;19;20009;-67
2022/11/08 06:26:26;;;;;;;7.28;1.98;;;9.70;99.90;;;;;;6128351;19;19919;-67
2022/11/08 06:28:30;;;;;;;6.30;2.08;;;9.70;99.90;;;;;;6125052;19;19918;-68
2022/11/08 06:30:34;;;;;;;8.50;2.13;;;9.70;99.90;;;;;;6127032;19;19922;-67
2022/11/08 06:32:41;;;;;;;7.38;2.40;;;9.50;99.90;;;;;;6127156;19;19931;-67
2022/11/08 06:34:47;;;;;;;4.90;2.00;;;9.70;99.90;;;;;;6127070;19;19917;-67
2022/11/08 06:36:53;;;;;;;8.80;3.03;;;;;;;;;;6127921;19;20280;-68
2022/11/08 06:38:57;;;;;;;7.88;2.50;;;9.50;99.90;;;;;;6124689;19;19930;-67
2022/11/08 06:41:01;;;;;;;8.68;2.13;;;9.70;99.90;;;;;;6129265;19;19914;-67
2022/11/08 06:43:05;;;;;;;3.85;2.08;;;9.60;99.90;;;;;;6126276;19;19993;-67
2022/11/08 06:45:10;;;;;;;8.65;2.17;;;9.60;99.90;;;;;;6127003;19;19925;-67
2022/11/08 06:47:14;;;;;;;4.20;1.92;;;9.50;99.90;;;;;;6125870;19;19921;-68
2022/11/08 06:49:21;;;;;;;8.32;1.90;;;9.50;99.90;;;;;;6126593;19;20311;-67
2022/11/08 06:51:25;;;;;;;6.30;2.70;;;;;;;;;;6126334;19;19914;-68
2022/11/08 06:53:28;;;;;;;7.13;2.70;;;9.50;99.90;;;;;;6128878;19;19942;-67
2022/11/08 06:55:33;;;;;;;8.25;2.00;;;9.50;99.90;;;;;;6125891;19;19920;-67
2022/11/08 06:57:37;;;;;;;5.40;1.95;;;9.50;99.90;;;;;;6127268;19;20433;-67
2022/11/08 06:59:41;;;;;;;8.98;1.92;;;9.50;99.90;;;;;;6129741;19;19938;-67
2022/11/08 07:01:45;;;;;;;9.43;2.25;;;;;;;;;;6126371;19;20343;-67
2022/11/08 07:03:49;;;;;;;9.35;2.33;;;;;;;;;;6127347;19;19938;-66
2022/11/08 07:05:56;;;;;;;5.47;1.90;;;9.60;99.90;;;;;;6123687;19;19927;-67
2022/11/08 07:08:05;;;;;;;5.03;1.80;;;9.50;99.90;;;;;;6125777;19;20360;-67
2022/11/08 07:10:10;;;;;;;5.75;1.85;;;9.70;99.90;;;;;;6129163;19;19919;-66
2022/11/08 07:12:14;;;;;;;5.65;1.85;;;9.60;99.90;;;;;;6122998;19;19915;-66
2022/11/08 07:14:17;;;;;;;8.10;2.80;;;9.60;99.90;;;;;;6131449;19;19914;-66
2022/11/08 07:16:22;;;;;;;7.60;2.00;;;9.70;99.90;;;;;;6131491;19;19990;-66
2022/11/08 07:18:26;;;;;;;5.55;1.85;;;9.80;99.90;;;;;;6131168;19;19942;-66
2022/11/08 07:20:30;;;;;;;3.40;1.60;;;;;;;;;;6133023;19;20022;-66
2022/11/08 07:22:37;;;;;;;5.55;1.70;;;9.50;99.90;;;;;;6131596;19;20251;-64
2022/11/08 07:24:41;;;;;;;6.88;1.58;;;;;;;;;;6130965;19;20310;-65
2022/11/08 07:26:45;;;;;;;3.80;1.55;;;;;;;;;;6130811;19;19937;-65
2022/11/08 07:28:49;;;;;;;6.70;2.35;;;9.80;99.90;;;;;;6131913;19;19922;-66
2022/11/08 07:30:53;;;;;;;4.90;1.50;;;9.80;99.90;;;;;;6132771;19;19998;-66
2022/11/08 07:32:58;;;;;;;2.78;1.23;;;10.10;99.90;;;;;;6134132;19;20555;-66
2022/11/08 07:35:02;;;;;;;7.68;1.48;;;;;;;;;;6132639;19;19919;-65
2022/11/08 07:37:06;;;;;;;5.95;1.48;;;9.90;99.90;;;;;;6130995;19;19926;-66
2022/11/08 07:39:13;;;;;;;4.97;1.33;;;10.00;99.90;;;;;;6130659;19;19919;-66
2022/11/08 07:41:16;;;;;;;5.75;2.00;;;10.00;99.90;;;;;;6130692;19;19945;-66
2022/11/08 07:43:21;;;;;;;5.00;1.17;;;;;;;;;;6130578;19;19928;-66
2022/11/08 07:45:24;;;;;;;2.97;1.30;;;10.00;99.90;;;;;;6130613;19;19915;-66
2022/11/08 07:47:28;;;;;;;4.93;1.48;;;10.20;99.90;;;;;;6131581;19;19910;-66
2022/11/08 07:49:32;;;;;;;6.32;1.40;;;10.00;99.90;;;;;;6131335;19;20279;-64
2022/11/08 07:51:36;;;;;;;3.88;1.30;;;;;;;;;;6130676;19;20340;-65
2022/11/08 07:53:40;;;;;;;3.13;1.40;;;10.30;99.90;;;;;;6130335;19;19914;-66
2022/11/08 07:55:48;;;;;;;6.20;1.02;;;10.00;99.90;;;;;;6131036;19;20367;-66
2022/11/08 07:57:55;;;;;;;10.05;1.75;;;10.00;99.90;;;;;;6130422;19;19911;-66
2022/11/08 07:59:59;;;;;;;2.55;1.30;;;;;;;;;;6130562;19;19919;-65
2022/11/08 08:02:03;;;;;;;5.45;1.40;;;10.00;99.90;;;;;;6132289;19;19915;-65
2022/11/08 08:04:08;;;;;;;3.10;1.10;;;10.10;99.90;;;;;;6131029;19;19945;-65
2022/11/08 08:06:12;;;;;;;4.07;1.30;;;10.00;99.90;;;;;;6129942;19;19918;-66
2022/11/08 08:08:16;;;;;;;2.70;1.15;;;10.20;99.90;;;;;;6130583;19;19918;-65
2022/11/08 08:10:19;;;;;;;5.47;1.05;;;10.40;99.90;;;;;;6130150;19;19915;-66
2022/11/08 08:12:26;;;;;;;6.35;1.50;;;10.40;99.90;;;;;;6128638;19;19923;-66
2022/11/08 08:14:30;;;;;;;2.97;1.30;;;10.40;99.90;;;;;;6129371;19;19923;-66
2022/11/08 08:16:35;;;;;;;6.65;1.50;;;10.40;99.90;;;;;;6130283;19;20320;-66
2022/11/08 08:18:39;;;;;;;3.60;1.40;;;10.40;99.90;;;;;;6130025;19;20363;-66
2022/11/08 08:20:43;;;;;;;4.80;1.63;;;10.50;99.90;;;;;;6130622;19;20256;-66
2022/11/08 08:22:47;;;;;;;3.42;0.93;;;10.70;99.90;;;;;;6130298;19;19929;-66
2022/11/08 08:24:51;;;;;;;2.78;1.20;;;10.60;99.90;;;;;;6130184;19;20351;-66
2022/11/08 08:26:55;;;;;;;1.38;1.15;;;;;;;;;;6128938;19;19938;-66
2022/11/08 08:29:01;;;;;;;2.42;1.20;;;10.80;99.90;;;;;;6127614;19;19938;-65
2022/11/08 08:31:08;;;;;;;2.47;1.17;;;10.70;99.90;;;;;;6129797;19;19911;-66
2022/11/08 08:33:15;;;;;;;2.55;1.00;;;10.80;99.90;;;;;;6129633;19;20344;-66
2022/11/08 08:35:19;;;;;;;4.25;1.10;;;10.80;99.90;;;;;;6129312;19;20370;-65
2022/11/08 08:37:23;;;;;;;3.00;1.17;;;10.80;99.90;;;;;;6129880;19;19941;-66
2022/11/08 08:39:27;;;;;;;2.55;0.90;;;10.90;99.90;;;;;;6132806;19;19970;-66
2022/11/08 08:41:31;;;;;;;5.70;1.52;;;11.90;99.90;;;;;;6129452;19;19919;-65
2022/11/08 08:43:35;;;;;;;2.95;0.93;;;11.90;99.90;;;;;;6129699;19;19915;-66
2022/11/08 08:45:42;;;;;;;6.45;1.40;;;12.00;99.90;;;;;;6129307;19;19915;-65
2022/11/08 08:47:46;;;;;;;4.03;1.10;;;11.50;99.90;;;;;;6128803;19;19953;-65
2022/11/08 08:49:50;;;;;;;1.23;0.98;;;11.60;99.90;;;;;;6129291;19;19938;-65
2022/11/08 08:51:54;;;;;;;5.25;0.80;;;;;;;;;;6128936;19;20366;-65
2022/11/08 08:53:58;;;;;;;2.25;0.80;;;11.80;99.90;;;;;;6128929;19;19911;-65
2022/11/08 08:56:02;;;;;;;5.20;0.88;;;11.50;99.90;;;;;;6131116;19;19918;-65
2022/11/08 08:58:06;;;;;;;4.40;1.08;;;11.80;99.90;;;;;;6129107;19;19919;-65
2022/11/08 09:00:11;;;;;;;2.72;1.00;;;12.30;99.90;;;;;;6128502;19;20349;-65
2022/11/08 09:02:19;;;;;;;1.85;0.85;;;11.90;99.90;;;;;;6131688;19;19931;-65
2022/11/08 09:04:22;;;;;;;2.00;1.08;;;11.70;99.90;;;;;;6128461;19;19919;-66
2022/11/08 09:06:26;;;;;;;2.30;1.25;;;12.00;99.90;;;;;;6129377;19;19942;-65
2022/11/08 09:08:31;;;;;;;5.78;1.73;;;11.90;99.90;;;;;;6127892;19;19918;-65
2022/11/08 09:10:35;;;;;;;2.75;1.13;;;12.80;99.90;;;;;;6129023;19;19921;-65
2022/11/08 09:12:39;;;;;;;3.33;1.00;;;12.90;99.90;;;;;;6128708;19;20327;-65
2022/11/08 09:14:43;;;;;;;3.50;0.95;;;12.10;99.90;;;;;;6128452;19;19922;-65
2022/11/08 09:16:47;;;;;;;4.10;1.00;;;;;;;;;;6126858;19;19945;-65
2022/11/08 09:18:54;;;;;;;2.90;0.90;;;12.10;99.90;;;;;;6127978;19;20358;-65
2022/11/08 09:20:58;;;;;;;1.00;0.70;;;12.30;99.90;;;;;;6131030;19;19911;-65
2022/11/08 09:23:03;;;;;;;2.92;0.95;;;12.70;99.90;;;;;;6128693;19;19914;-65
2022/11/08 09:25:09;;;;;;;1.63;0.95;;;12.50;99.90;;;;;;6128047;19;19914;-66
2022/11/08 09:27:14;;;;;;;6.35;0.90;;;12.30;99.90;;;;;;6130319;19;19929;-65
2022/11/08 09:29:21;;;;;;;0.95;0.70;;;12.30;99.90;;;;;;6128045;19;20483;-65
2022/11/08 09:31:24;;;;;;;5.05;1.00;;;12.00;99.90;;;;;;6128595;19;20014;-65
2022/11/08 09:33:29;;;;;;;2.60;0.90;;;12.10;99.90;;;;;;6128145;19;19923;-65
2022/11/08 09:35:35;;;;;;;3.55;1.33;;;12.40;99.90;;;;;;6130734;19;19914;-65
2022/11/08 09:37:39;;;;;;;2.40;1.02;;;12.20;99.90;;;;;;6125445;19;19941;-65
2022/11/08 09:39:43;;;;;;;7.10;0.80;;;12.70;99.90;;;;;;6130994;19;19918;-66
2022/11/08 09:42:26;;;;;;;3.13;1.10;;;12.10;99.90;;;;;;6128188;19;20344;-66
2022/11/08 09:44:49;;;;;;;5.45;1.30;;;12.40;99.90;;;;;;6128028;19;19950;-65
2022/11/08 09:46:56;;;;;;;1.75;0.70;;;12.00;99.90;;;;;;6130487;19;19915;-65
2022/11/08 09:49:02;;;;;;;3.88;1.00;;;12.60;99.90;;;;;;6126001;19;19927;-65
2022/11/08 09:51:14;;;;;;;2.78;1.13;;;12.70;99.90;;;;;;6131274;19;19918;-65
2022/11/08 09:53:20;;;;;;;1.67;1.00;;;12.60;99.90;;;;;;6127962;19;19923;-65
2022/11/08 09:55:30;;;;;;;1.42;0.95;;;13.00;99.90;;;;;;6127969;19;19938;-65
2022/11/08 09:57:39;;;;;;;3.17;1.15;;;12.80;99.90;;;;;;6130276;19;19921;-66
2022/11/08 09:59:48;;;;;;;2.95;1.02;;;12.90;99.90;;;;;;6131044;19;20328;-65
2022/11/08 10:01:52;;;;;;;2.03;1.00;;;;;;;;;;6127165;19;19922;-65
2022/11/08 10:03:58;;;;;;;1.45;1.10;;;12.70;99.90;;;;;;6127949;19;20342;-65
2022/11/08 10:06:31;;;;;;;3.28;1.10;;;12.80;99.90;;;;;;6128243;19;19919;-66
2022/11/08 10:08:41;;;;;;;3.63;1.10;;;12.70;99.90;;;;;;6125977;19;19941;-66
2022/11/08 10:11:03;;;;;;;4.75;1.10;;;12.40;99.90;;;;;;6127529;19;19922;-69
2022/11/08 10:13:14;;;;;;;3.20;1.10;;;12.40;99.90;;;;;;6131090;19;19934;-65
2022/11/08 10:15:26;;;;;;;2.15;1.08;;;12.30;99.90;;;;;;6124740;19;19990;-64
2022/11/08 10:17:43;;;;;;;2.88;1.50;;;12.40;99.90;;;;;;6128170;19;19982;-65
2022/11/08 10:20:09;;;;;;;2.42;1.10;;;12.90;99.90;;;;;;6127166;19;20026;-67
2022/11/08 10:22:19;;;;;;;;;;;12.90;99.90;;;;;;6129269;19;19922;-72
2022/11/08 10:24:29;;;;;;;2.22;0.80;;;12.90;99.90;;;;;;6129248;19;19919;-71
2022/11/08 10:26:41;;;;;;;2.90;0.88;;;12.40;99.90;;;;;;6128624;19;19937;-71
2022/11/08 10:28:49;;;;;;;3.30;1.02;;;12.90;99.90;;;;;;6127743;19;19938;-69
2022/11/08 10:30:54;;;;;;;2.10;0.88;;;12.50;99.90;;;;;;6128205;19;19910;-70
2022/11/08 10:32:59;;;;;;;4.15;1.52;;;13.40;99.90;;;;;;6127893;19;19938;-72
2022/11/08 10:35:14;;;;;;;1.75;0.60;;;13.60;99.90;;;;;;6128621;19;19929;-72
2022/11/08 10:37:21;;;;;;;3.63;1.02;;;13.10;99.90;;;;;;6127835;19;20271;-73
2022/11/08 10:39:28;;;;;;;2.67;0.80;;;13.80;99.90;;;;;;6126712;19;20363;-72
2022/11/08 10:41:41;;;;;;;2.58;1.05;;;13.10;99.90;;;;;;6129985;19;19910;-72
2022/11/08 10:43:51;;;;;;;2.22;1.20;;;13.10;99.90;;;;;;6126720;19;19914;-72
2022/11/08 10:45:55;;;;;;;1.50;1.15;;;12.80;99.90;;;;;;6126692;19;19918;-72
2022/11/08 10:47:59;;;;;;;1.77;1.02;;;12.90;99.90;;;;;;6125732;19;19941;-71
2022/11/08 10:50:03;;;;;;;2.72;1.10;;;12.70;99.90;;;;;;6126189;19;19926;-68
2022/11/08 10:52:37;;;;;;;1.27;0.77;;;13.60;99.90;;;;;;6126250;19;19922;-68
2022/11/08 10:54:49;;;;;;;1.45;0.90;;;13.40;99.90;;;;;;6127904;19;19911;-68
2022/11/08 10:56:57;;;;;;;3.35;1.13;;;13.10;99.90;;;;;;6128573;19;19942;-69
2022/11/08 10:59:01;;;;;;;5.85;0.90;;;;;;;;;;6125611;19;19931;-72
2022/11/08 11:01:09;;;;;;;3.05;1.00;;;13.00;99.90;;;;;;6129904;19;19918;-66
2022/11/08 11:03:28;;;;;;;2.65;1.20;;;13.20;99.90;;;;;;6126623;19;19918;-66
2022/11/08 11:05:35;;;;;;;3.08;0.93;;;12.90;99.90;;;;;;6126325;19;19910;-69
2022/11/08 11:07:42;;;;;;;2.35;0.85;;;13.00;99.90;;;;;;6127726;19;19926;-70
2022/11/08 11:09:46;;;;;;;6.38;0.95;;;13.10;99.90;;;;;;6124316;19;19922;-70
2022/11/08 11:11:58;;;;;;;2.85;1.10;;;13.30;99.90;;;;;;6128470;19;20344;-71
2022/11/08 11:14:13;;;;;;;2.65;0.82;;;13.30;99.90;;;;;;6126673;19;19915;-73
2022/11/08 11:16:17;;;;;;;4.32;0.80;;;13.30;99.90;;;;;;6126195;19;19919;-72
2022/11/08 11:18:28;;;;;;;3.30;0.90;;;13.40;99.90;;;;;;6126466;19;20268;-72
2022/11/08 11:20:32;;;;;;;3.50;1.05;;;13.60;99.90;;;;;;6125688;19;19933;-73
2022/11/08 11:22:37;;;;;;;2.30;0.88;;;13.30;99.90;;;;;;6125162;19;19914;-72
2022/11/08 11:24:54;;;;;;;4.68;0.90;;;12.90;99.90;;;;;;6124947;19;19936;-73
2022/11/08 11:27:06;;;;;;;1.65;0.90;;;13.50;99.90;;;;;;6125798;19;19907;-73
2022/11/08 11:29:21;;;;;;;2.97;1.13;;;13.00;99.90;;;;;;6127809;19;19937;-72